Terminal Aerodrome Forecast
Issued by NWS

Home | Current Version | Previous Version | Text Only | Print | Product List | Glossary On
Versions: 1 2 3 4 5 6 7 8 9 10 11 12 13 14 15 16 17 18
947
FTUS43 KGRR 261002 AAA
TAFMKG
TAF AMD
KMKG 261002Z 2610/2706 00000KT P6SM MIFG FEW011 FEW070
     FM261400 08004KT 5SM BR OVC005
     FM261600 25005KT P6SM BKN035
     FM270000 VRB04KT P6SM OVC035=

USA.gov is the U.S. government's official web portal to all federal, state and local government web resources and services.